createdAt,value
2018-11-25T00:00:22.151Z,39.83
2018-11-25T00:02:50.598Z,58.50
2018-11-25T00:05:19.020Z,38.10
2018-11-25T00:07:47.463Z,41.00
2018-11-25T00:10:15.953Z,36.70
2018-11-25T00:12:44.457Z,36.07
2018-11-25T00:15:12.913Z,41.00
2018-11-25T00:17:41.375Z,36.23
2018-11-25T00:20:11.102Z,33.90
2018-11-25T00:22:39.557Z,39.03
2018-11-25T00:25:09.703Z,56.47
2018-11-25T00:27:38.108Z,34.37
2018-11-25T00:30:10.141Z,37.93
2018-11-25T00:32:38.601Z,34.97
2018-11-25T00:35:08.381Z,37.07
2018-11-25T00:37:36.790Z,30.87
2018-11-25T00:40:06.742Z,27.60
2018-11-25T00:42:35.154Z,35.23
2018-11-25T00:45:03.648Z,35.50
2018-11-25T00:47:32.116Z,33.57
2018-11-25T00:50:00.519Z,46.10
2018-11-25T00:52:28.946Z,40.27
2018-11-25T00:54:57.347Z,61.43
2018-11-25T00:57:25.817Z,39.40
2018-11-25T00:59:54.206Z,30.73
2018-11-25T01:02:22.628Z,38.20
2018-11-25T01:04:51.054Z,34.53
2018-11-25T01:07:19.486Z,36.87
2018-11-25T01:09:47.910Z,38.10
2018-11-25T01:12:16.346Z,27.87
2018-11-25T01:14:44.776Z,31.43
2018-11-25T01:17:13.183Z,28.63
2018-11-25T01:19:41.600Z,28.97
2018-11-25T01:22:10.014Z,28.97
2018-11-25T01:24:38.442Z,50.20
2018-11-25T01:27:06.890Z,38.83
2018-11-25T01:29:35.290Z,45.80
2018-11-25T01:32:03.722Z,63.27
2018-11-25T01:34:32.251Z,67.27
2018-11-25T01:37:00.667Z,40.07
2018-11-25T01:39:29.074Z,38.50
2018-11-25T01:41:57.477Z,44.60
2018-11-25T01:44:25.987Z,95.93
2018-11-25T01:46:54.413Z,63.40
2018-11-25T01:49:22.846Z,129.73
2018-11-25T01:51:51.271Z,67.33
2018-11-25T01:54:19.683Z,41.83
2018-11-25T01:56:48.121Z,65.03
2018-11-25T01:59:16.613Z,111.07
2018-11-25T02:01:45.023Z,40.10
2018-11-25T02:04:13.425Z,50.53
2018-11-25T02:06:41.838Z,75.20
2018-11-25T02:09:09.932Z,36.40
2018-11-25T02:11:38.449Z,41.93
2018-11-25T02:14:06.859Z,37.73
2018-11-25T02:16:35.299Z,144.50
2018-11-25T02:19:03.753Z,72.60
2018-11-25T02:21:32.144Z,72.47
2018-11-25T02:24:00.551Z,60.40
2018-11-25T02:26:28.967Z,31.17
2018-11-25T02:28:57.401Z,50.03
2018-11-25T02:31:25.817Z,54.13
2018-11-25T02:33:54.239Z,48.63
2018-11-25T02:36:22.740Z,45.27
2018-11-25T02:38:51.164Z,53.80
2018-11-25T02:41:19.611Z,47.87
2018-11-25T02:43:48.054Z,71.57
2018-11-25T02:46:16.549Z,33.67
2018-11-25T02:48:44.955Z,42.50
2018-11-25T02:51:13.354Z,42.60
2018-11-25T02:53:41.878Z,47.07
2018-11-25T02:56:10.292Z,50.80
2018-11-25T02:58:38.711Z,94.70
2018-11-25T03:01:08.498Z,50.70
2018-11-25T03:03:37.633Z,75.40
2018-11-25T03:06:06.090Z,43.17
2018-11-25T03:08:34.490Z,36.23
2018-11-25T03:11:02.907Z,49.57
2018-11-25T03:13:31.332Z,45.97
2018-11-25T03:15:59.752Z,94.57
2018-11-25T03:18:28.225Z,28.43
2018-11-25T03:20:56.621Z,43.03
2018-11-25T03:23:25.094Z,41.83
2018-11-25T03:25:53.502Z,48.60
2018-11-25T03:28:21.896Z,15.83
2018-11-25T03:30:50.314Z,34.43
2018-11-25T03:33:18.698Z,30.40
2018-11-25T03:35:47.104Z,27.80
2018-11-25T03:38:15.481Z,25.27
2018-11-25T03:40:43.898Z,40.13
2018-11-25T03:43:12.338Z,27.07
2018-11-25T03:45:40.898Z,67.63
2018-11-25T03:48:09.282Z,30.67
2018-11-25T03:50:37.677Z,21.30
2018-11-25T03:53:06.365Z,20.90
2018-11-25T03:55:34.772Z,32.30
2018-11-25T03:58:03.196Z,28.90
2018-11-25T04:00:31.601Z,33.33
2018-11-25T04:03:00.012Z,43.10
2018-11-25T04:05:29.002Z,32.70
2018-11-25T04:07:56.920Z,39.23
2018-11-25T04:10:25.310Z,62.83
2018-11-25T04:12:54.224Z,39.50
2018-11-25T04:15:22.661Z,62.43
2018-11-25T04:17:51.092Z,34.87
2018-11-25T04:20:20.318Z,42.53
2018-11-25T04:22:49.431Z,33.90
2018-11-25T04:25:17.890Z,30.27
2018-11-25T04:27:46.307Z,34.30
2018-11-25T04:30:15.686Z,84.03
2018-11-25T04:32:44.936Z,37.67
2018-11-25T04:35:13.626Z,40.57
2018-11-25T04:37:42.086Z,47.13
2018-11-25T04:40:11.645Z,37.40
2018-11-25T04:42:40.196Z,46.53
2018-11-25T04:45:15.992Z,28.87
2018-11-25T04:47:44.982Z,57.33
2018-11-25T04:50:19.490Z,33.67
2018-11-25T04:52:47.981Z,40.83
2018-11-25T04:55:16.407Z,79.50
2018-11-25T04:57:47.433Z,40.10
2018-11-25T05:00:15.861Z,27.30
2018-11-25T05:02:44.263Z,46.90
2018-11-25T05:05:13.739Z,37.67
2018-11-25T05:07:42.142Z,31.60
2018-11-25T05:10:11.751Z,43.73
2018-11-25T05:12:40.191Z,35.83
2018-11-25T05:15:10.675Z,38.10
2018-11-25T05:17:39.086Z,37.53
2018-11-25T05:20:09.293Z,28.33
2018-11-25T05:22:37.849Z,47.63
2018-11-25T05:25:11.070Z,48.23
2018-11-25T05:27:39.529Z,31.70
2018-11-25T05:30:11.182Z,34.10
2018-11-25T05:32:39.603Z,27.63
2018-11-25T05:35:09.726Z,64.03
2018-11-25T05:37:38.207Z,39.40
2018-11-25T05:40:08.874Z,24.13
2018-11-25T05:42:37.311Z,29.53
2018-11-25T05:45:08.007Z,24.87
2018-11-25T05:47:36.407Z,25.97
2018-11-25T05:50:05.459Z,23.13
2018-11-25T05:52:34.450Z,25.43
2018-11-25T05:55:02.853Z,32.30
2018-11-25T05:57:31.269Z,21.67
2018-11-25T05:59:59.815Z,32.80
2018-11-25T06:02:28.214Z,21.67
2018-11-25T06:04:56.627Z,19.10
2018-11-25T06:07:25.069Z,25.27
2018-11-25T06:09:53.467Z,24.57
2018-11-25T06:12:21.889Z,30.90
2018-11-25T06:14:50.290Z,24.10
2018-11-25T06:17:18.729Z,22.07
2018-11-25T06:19:47.143Z,22.90
2018-11-25T06:22:15.567Z,21.57
2018-11-25T06:24:44.079Z,21.80
2018-11-25T06:27:12.502Z,23.40
2018-11-25T06:29:40.969Z,26.30
2018-11-25T06:32:09.906Z,25.17
2018-11-25T06:34:38.308Z,27.77
2018-11-25T06:37:06.759Z,28.47
2018-11-25T06:39:35.149Z,30.17
2018-11-25T06:42:03.612Z,30.20
2018-11-25T06:44:32.013Z,28.97
2018-11-25T06:47:00.411Z,29.43
2018-11-25T06:49:28.947Z,28.57
2018-11-25T06:51:57.375Z,31.60
2018-11-25T06:54:25.807Z,33.30
2018-11-25T06:56:54.214Z,40.77
2018-11-25T06:59:22.611Z,35.80
2018-11-25T07:01:51.046Z,39.57
2018-11-25T07:04:20.215Z,44.30
2018-11-25T07:06:48.613Z,47.67
2018-11-25T07:09:17.033Z,48.27
2018-11-25T07:11:45.453Z,69.70
2018-11-25T07:14:13.912Z,53.60
2018-11-25T07:16:42.320Z,61.37
2018-11-25T07:19:10.758Z,54.97
2018-11-25T07:21:39.184Z,52.13
2018-11-25T07:24:07.620Z,65.07
2018-11-25T07:26:36.018Z,55.90
2018-11-25T07:29:04.685Z,55.67
2018-11-25T07:31:33.098Z,56.60
2018-11-25T07:34:01.517Z,51.10
2018-11-25T07:36:29.918Z,47.50
2018-11-25T07:38:58.457Z,50.23
2018-11-25T07:41:26.851Z,52.00
2018-11-25T07:43:55.318Z,48.03
2018-11-25T07:46:23.718Z,50.53
2018-11-25T07:48:52.408Z,51.50
2018-11-25T07:51:20.851Z,49.20
2018-11-25T07:53:49.294Z,47.37
2018-11-25T07:56:17.706Z,49.97
2018-11-25T07:58:46.153Z,55.90
2018-11-25T08:01:14.604Z,49.27
2018-11-25T08:03:43.299Z,50.40
2018-11-25T08:06:11.711Z,51.43
2018-11-25T08:08:40.128Z,51.20
2018-11-25T08:11:08.530Z,53.33
2018-11-25T08:13:37.066Z,52.23
2018-11-25T08:16:05.909Z,50.17
2018-11-25T08:18:34.355Z,48.40
2018-11-25T08:21:03.381Z,55.23
2018-11-25T08:23:31.771Z,49.53
2018-11-25T08:26:00.167Z,54.70
2018-11-25T08:28:28.591Z,51.03
2018-11-25T08:30:57.569Z,48.67
2018-11-25T08:33:26.001Z,52.73
2018-11-25T08:35:54.414Z,49.83
2018-11-25T08:38:22.826Z,51.33
2018-11-25T08:40:51.244Z,43.53
2018-11-25T08:43:19.669Z,49.03
2018-11-25T08:45:48.069Z,42.80
2018-11-25T08:48:16.459Z,49.17
2018-11-25T08:50:44.879Z,44.40
2018-11-25T08:53:13.290Z,43.97
2018-11-25T08:55:41.718Z,47.30
2018-11-25T08:58:10.174Z,45.10
2018-11-25T09:00:38.590Z,47.83
2018-11-25T09:03:07.007Z,46.83
2018-11-25T09:05:35.403Z,48.40
2018-11-25T09:08:03.855Z,46.93
2018-11-25T09:10:32.314Z,49.30
2018-11-25T09:13:00.709Z,47.10
2018-11-25T09:15:30.767Z,51.17
2018-11-25T09:17:59.706Z,47.17
2018-11-25T09:20:28.144Z,50.30
2018-11-25T09:22:56.531Z,49.40
2018-11-25T09:25:32.420Z,55.07
2018-11-25T09:28:02.084Z,53.17
2018-11-25T09:30:31.684Z,52.33
2018-11-25T09:33:00.100Z,52.57
2018-11-25T09:35:28.564Z,52.67
2018-11-25T09:37:57.886Z,53.07
2018-11-25T09:40:27.283Z,54.27
2018-11-25T09:42:55.715Z,51.23
2018-11-25T09:45:24.195Z,55.07
2018-11-25T09:47:52.628Z,51.60
2018-11-25T09:50:22.150Z,50.17
2018-11-25T09:52:50.608Z,47.27
2018-11-25T09:55:20.119Z,52.93
2018-11-25T09:57:50.731Z,44.53
2018-11-25T10:00:25.231Z,50.73
2018-11-25T10:02:53.869Z,40.27
2018-11-25T10:05:22.295Z,43.43
2018-11-25T10:07:50.745Z,38.97
2018-11-25T10:10:20.300Z,36.97
2018-11-25T10:12:48.819Z,33.40
2018-11-25T10:15:19.450Z,31.73
2018-11-25T10:17:47.935Z,29.43
2018-11-25T10:20:18.567Z,29.60
2018-11-25T10:22:46.995Z,24.80
2018-11-25T10:25:16.257Z,25.43
2018-11-25T10:27:44.675Z,23.40
2018-11-25T10:30:20.115Z,27.60
2018-11-25T10:32:51.620Z,26.93
2018-11-25T10:35:20.076Z,26.47
2018-11-25T10:37:48.622Z,26.03
2018-11-25T10:40:19.002Z,26.93
2018-11-25T10:42:47.461Z,28.10
2018-11-25T10:45:18.204Z,27.67
2018-11-25T10:47:46.681Z,22.53
2018-11-25T10:50:18.026Z,23.80
2018-11-25T10:52:46.565Z,27.10
2018-11-25T10:55:16.146Z,27.23
2018-11-25T10:57:45.622Z,25.43
2018-11-25T11:00:26.517Z,31.93
2018-11-25T11:03:59.368Z,28.17
2018-11-25T11:06:33.294Z,29.63
2018-11-25T11:09:01.744Z,32.63
2018-11-25T11:11:31.507Z,29.60
2018-11-25T11:13:59.980Z,30.23
2018-11-25T11:16:28.429Z,31.13
2018-11-25T11:18:56.877Z,30.13
2018-11-25T11:21:26.492Z,30.73
2018-11-25T11:23:53.837Z,27.87
2018-11-25T11:26:25.996Z,26.83
2018-11-25T11:28:54.472Z,27.20
2018-11-25T11:31:22.942Z,23.77
2018-11-25T11:33:52.121Z,25.57
2018-11-25T11:36:20.654Z,24.13
2018-11-25T11:38:49.092Z,21.53
2018-11-25T11:41:17.736Z,25.13
2018-11-25T11:43:46.273Z,21.60
2018-11-25T11:46:14.799Z,20.40
2018-11-25T11:48:43.259Z,23.53
2018-11-25T11:51:11.761Z,23.67
2018-11-25T11:53:40.221Z,25.20
2018-11-25T11:56:08.723Z,22.13
2018-11-25T11:58:37.422Z,20.23
2018-11-25T12:01:07.250Z,20.40
2018-11-25T12:03:35.705Z,24.50
2018-11-25T12:06:04.236Z,19.50
2018-11-25T12:08:32.810Z,17.73
2018-11-25T12:11:01.366Z,20.20
2018-11-25T12:13:29.822Z,20.30
2018-11-25T12:15:58.302Z,22.30
2018-11-25T12:18:26.755Z,26.97
2018-11-25T12:20:55.322Z,26.63
2018-11-25T12:23:23.836Z,24.43
2018-11-25T12:25:53.307Z,25.77
2018-11-25T12:28:22.824Z,24.90
2018-11-25T12:30:51.958Z,23.53
2018-11-25T12:33:20.452Z,23.43
2018-11-25T12:35:48.962Z,25.77
2018-11-25T12:38:17.499Z,23.80
2018-11-25T12:40:46.083Z,26.63
2018-11-25T12:43:14.684Z,26.53
2018-11-25T12:45:43.187Z,23.13
2018-11-25T12:50:38.747Z,27.13
2018-11-25T12:53:08.386Z,27.30
2018-11-25T12:55:37.057Z,25.50
2018-11-25T12:58:06.429Z,21.47
2018-11-25T13:00:37.408Z,19.63
2018-11-25T13:03:07.907Z,21.90
2018-11-25T13:05:36.622Z,21.20
2018-11-25T13:08:05.811Z,20.50
2018-11-25T13:10:34.617Z,19.13
2018-11-25T13:13:03.679Z,21.90
2018-11-25T13:15:32.332Z,18.87
2018-11-25T13:18:01.365Z,17.47
2018-11-25T13:20:30.369Z,19.50
2018-11-25T13:23:00.887Z,17.10
2018-11-25T13:25:30.252Z,16.33
2018-11-25T13:27:58.870Z,21.97
2018-11-25T13:30:30.016Z,28.43
2018-11-25T13:33:00.012Z,16.27
2018-11-25T13:35:31.239Z,29.77
2018-11-25T13:38:00.581Z,44.60
2018-11-25T13:40:29.647Z,20.40
2018-11-25T13:42:58.378Z,16.63
2018-11-25T13:45:27.446Z,17.60
2018-11-25T13:47:56.320Z,13.67
2018-11-25T13:50:25.551Z,12.70
2018-11-25T13:52:54.269Z,11.43
2018-11-25T13:55:24.742Z,11.00
2018-11-25T13:57:53.858Z,11.93
2018-11-25T14:00:44.466Z,10.73
2018-11-25T14:03:15.808Z,11.60
2018-11-25T14:05:52.607Z,11.50
2018-11-25T14:08:14.524Z,13.93
2018-11-25T14:10:43.838Z,12.00
2018-11-25T14:13:13.181Z,14.60
2018-11-25T14:15:42.550Z,15.27
2018-11-25T14:18:11.515Z,14.93
2018-11-25T14:20:40.613Z,17.53
2018-11-25T14:23:09.578Z,17.80
2018-11-25T14:25:38.286Z,18.10
2018-11-25T14:28:10.073Z,19.17
2018-11-25T14:30:38.942Z,19.70
2018-11-25T14:33:07.963Z,18.83
2018-11-25T14:35:37.441Z,18.43
2018-11-25T14:38:06.885Z,19.37
2018-11-25T14:40:35.742Z,23.80
2018-11-25T14:43:04.755Z,19.80
2018-11-25T14:45:33.777Z,20.53
2018-11-25T14:48:03.232Z,17.77
2018-11-25T14:50:31.893Z,17.07
2018-11-25T14:53:00.737Z,15.87
2018-11-25T14:55:29.425Z,17.90
2018-11-25T14:57:58.179Z,18.57
2018-11-25T15:00:26.798Z,17.80
2018-11-25T15:02:59.869Z,16.40
2018-11-25T15:05:37.073Z,18.07
2018-11-25T15:08:06.759Z,18.73
2018-11-25T15:10:35.596Z,18.37
2018-11-25T15:13:04.428Z,18.53
2018-11-25T15:15:33.426Z,16.67
2018-11-25T15:18:02.437Z,17.20
2018-11-25T15:20:31.432Z,15.90
2018-11-25T15:23:02.229Z,14.80
2018-11-25T15:25:34.072Z,17.73
2018-11-25T15:28:03.149Z,16.00
2018-11-25T15:30:31.953Z,16.30
2018-11-25T15:33:00.713Z,20.33
2018-11-25T15:35:30.239Z,20.00
2018-11-25T15:37:59.114Z,19.27
2018-11-25T15:40:29.388Z,17.90
2018-11-25T15:42:58.626Z,21.13
2018-11-25T15:45:28.758Z,19.57
2018-11-25T15:48:01.338Z,19.70
2018-11-25T15:50:30.887Z,23.87
2018-11-25T15:53:00.039Z,21.03
2018-11-25T15:55:29.223Z,21.03
2018-11-25T15:57:58.223Z,21.77
2018-11-25T16:00:27.326Z,21.93
2018-11-25T16:02:56.446Z,22.23
2018-11-25T16:05:27.887Z,22.37
2018-11-25T16:07:57.081Z,22.97
2018-11-25T16:10:26.448Z,24.40
2018-11-25T16:12:55.826Z,22.50
2018-11-25T16:15:26.699Z,25.83
2018-11-25T16:17:55.719Z,26.57
2018-11-25T16:20:27.470Z,28.73
2018-11-25T16:23:01.355Z,26.57
2018-11-25T16:25:35.181Z,26.37
2018-11-25T16:28:11.591Z,25.33
2018-11-25T16:30:40.794Z,30.77
2018-11-25T16:33:10.757Z,27.60
2018-11-25T16:35:40.238Z,25.63
2018-11-25T16:38:09.497Z,28.83
2018-11-25T16:40:38.842Z,33.57
2018-11-25T16:43:08.036Z,29.23
2018-11-25T16:45:37.349Z,31.37
2018-11-25T16:48:07.415Z,30.50
2018-11-25T16:50:37.372Z,33.50
2018-11-25T16:53:07.494Z,34.93
2018-11-25T16:55:36.485Z,37.03
2018-11-25T16:58:06.400Z,31.50
2018-11-25T17:00:35.570Z,36.23
2018-11-25T17:03:04.881Z,31.20
2018-11-25T17:05:42.156Z,36.63
2018-11-25T17:08:24.407Z,39.50
2018-11-25T17:10:54.152Z,34.40
2018-11-25T17:13:24.091Z,38.73
2018-11-25T17:15:53.477Z,43.40
2018-11-25T17:18:23.519Z,34.97
2018-11-25T17:20:53.006Z,37.50
2018-11-25T17:23:22.249Z,35.13
2018-11-25T17:25:51.633Z,36.93
2018-11-25T17:28:21.194Z,39.00
2018-11-25T17:30:50.407Z,35.57
2018-11-25T17:33:21.853Z,42.33
2018-11-25T17:35:50.317Z,36.47
2018-11-25T17:38:21.232Z,41.13
2018-11-25T17:40:50.416Z,39.93
2018-11-25T17:43:21.268Z,38.20
2018-11-25T17:45:51.542Z,45.70
2018-11-25T17:48:20.790Z,41.33
2018-11-25T17:50:49.976Z,44.33
2018-11-25T17:53:20.904Z,41.83
2018-11-25T17:55:48.801Z,50.90
2018-11-25T17:58:18.223Z,46.67
2018-11-25T18:00:55.015Z,43.77
2018-11-25T18:03:29.727Z,48.53
2018-11-25T18:06:00.112Z,47.33
2018-11-25T18:08:31.482Z,46.17
2018-11-25T18:11:01.012Z,45.50
2018-11-25T18:13:32.306Z,46.53
2018-11-25T18:16:03.998Z,49.37
2018-11-25T18:18:36.627Z,51.63
2018-11-25T18:21:07.930Z,51.37
2018-11-25T18:23:38.726Z,47.90
2018-11-25T18:26:08.033Z,53.67
2018-11-25T18:28:37.690Z,53.20
2018-11-25T18:31:08.521Z,59.23
2018-11-25T18:33:38.930Z,54.40
2018-11-25T18:36:09.524Z,50.07
2018-11-25T18:38:38.775Z,52.93
2018-11-25T18:41:08.889Z,54.33
2018-11-25T18:43:38.196Z,54.57
2018-11-25T18:46:07.995Z,52.13
2018-11-25T18:48:39.436Z,53.87
2018-11-25T18:51:09.065Z,61.10
2018-11-25T18:53:41.021Z,57.47
2018-11-25T18:56:11.268Z,54.33
2018-11-25T18:58:41.542Z,55.37
2018-11-25T19:01:22.043Z,57.47
2018-11-25T19:03:52.390Z,62.00
2018-11-25T19:06:22.810Z,59.80
2018-11-25T19:08:52.406Z,62.57
2018-11-25T19:11:22.035Z,59.20
2018-11-25T19:13:52.219Z,57.87
2018-11-25T19:16:22.725Z,58.53
2018-11-25T19:18:52.326Z,58.30
2018-11-25T19:21:22.374Z,55.23
2018-11-25T19:23:52.693Z,56.80
2018-11-25T19:26:22.614Z,53.40
2018-11-25T19:28:53.680Z,53.13
2018-11-25T19:31:23.503Z,52.93
2018-11-25T19:33:53.702Z,51.73
2018-11-25T19:38:51.742Z,55.03
2018-11-25T19:41:21.268Z,49.73
2018-11-25T19:43:51.760Z,47.33
2018-11-25T19:46:24.738Z,49.20
2018-11-25T19:48:56.664Z,49.57
2018-11-25T19:51:26.033Z,59.10
2018-11-25T19:53:56.799Z,49.87
2018-11-25T19:56:27.593Z,51.17
2018-11-25T19:58:59.911Z,46.10
2018-11-25T20:01:30.614Z,44.70
2018-11-25T20:04:01.131Z,47.93
2018-11-25T20:06:32.270Z,49.73
2018-11-25T20:09:03.415Z,49.77
2018-11-25T20:11:33.287Z,48.73
2018-11-25T20:14:02.887Z,44.93
2018-11-25T20:16:38.269Z,40.20
2018-11-25T20:19:08.043Z,41.10
2018-11-25T20:21:42.864Z,48.33
2018-11-25T20:24:13.164Z,41.77
2018-11-25T20:27:49.262Z,44.40
2018-11-25T20:30:20.918Z,43.47
2018-11-25T20:32:55.225Z,42.03
2018-11-25T20:35:25.563Z,43.00
2018-11-25T20:38:00.797Z,43.57
2018-11-25T20:40:30.475Z,45.43
2018-11-25T20:43:01.957Z,45.33
2018-11-25T20:45:38.972Z,42.93
2018-11-25T20:48:08.187Z,43.33
2018-11-25T20:50:37.858Z,40.67
2018-11-25T20:53:13.286Z,40.93
2018-11-25T20:55:44.188Z,43.67
2018-11-25T20:58:15.385Z,41.30
2018-11-25T21:00:45.269Z,38.80
2018-11-25T21:03:15.141Z,38.80
2018-11-25T21:05:45.548Z,45.50
2018-11-25T21:08:15.042Z,43.60
2018-11-25T21:10:44.424Z,36.77
2018-11-25T21:13:15.849Z,39.53
2018-11-25T21:15:45.338Z,59.07
2018-11-25T21:18:15.463Z,40.50
2018-11-25T21:20:51.011Z,42.53
2018-11-25T21:23:14.568Z,38.83
2018-11-25T21:25:43.851Z,37.37
2018-11-25T21:28:13.939Z,32.07
2018-11-25T21:30:43.451Z,35.83
2018-11-25T21:33:12.771Z,33.70
2018-11-25T21:35:42.639Z,37.57
2018-11-25T21:38:11.977Z,33.57
2018-11-25T21:40:41.688Z,34.20
2018-11-25T21:43:10.994Z,34.30
2018-11-25T21:45:40.518Z,36.07
2018-11-25T21:48:09.800Z,29.67
2018-11-25T21:50:38.932Z,33.17
2018-11-25T21:53:08.160Z,36.80
2018-11-25T21:55:37.365Z,33.70
2018-11-25T21:58:07.288Z,33.10
2018-11-25T22:00:37.870Z,32.67
2018-11-25T22:03:06.809Z,30.67
2018-11-25T22:05:35.846Z,34.20
2018-11-25T22:08:05.199Z,33.53
2018-11-25T22:10:34.390Z,33.30
2018-11-25T22:13:03.174Z,27.87
2018-11-25T22:15:31.841Z,30.57
2018-11-25T22:18:00.347Z,31.30
2018-11-25T22:20:28.853Z,34.20
2018-11-25T22:22:57.409Z,31.70
2018-11-25T22:25:26.558Z,32.40
2018-11-25T22:27:55.014Z,33.53
2018-11-25T22:30:24.586Z,31.03
2018-11-25T22:32:53.031Z,24.80
2018-11-25T22:35:22.656Z,25.33
2018-11-25T22:37:51.101Z,25.23
2018-11-25T22:40:20.040Z,27.97
2018-11-25T22:42:49.558Z,27.13
2018-11-25T22:45:19.250Z,27.00
2018-11-25T22:47:47.814Z,22.80
2018-11-25T22:50:18.206Z,24.97
2018-11-25T22:52:46.690Z,26.47
2018-11-25T22:55:23.926Z,25.20
2018-11-25T22:57:52.523Z,22.97
2018-11-25T23:00:28.928Z,20.80
2018-11-25T23:02:57.396Z,24.03
2018-11-25T23:05:37.138Z,22.30
2018-11-25T23:08:05.712Z,19.87
2018-11-25T23:10:34.183Z,19.23
2018-11-25T23:13:02.674Z,17.43
2018-11-25T23:15:31.095Z,19.63
2018-11-25T23:17:59.527Z,17.37
2018-11-25T23:20:27.960Z,16.03
2018-11-25T23:22:56.402Z,17.53
2018-11-25T23:25:24.857Z,16.63
2018-11-25T23:27:53.254Z,17.63
2018-11-25T23:30:21.664Z,14.70
2018-11-25T23:32:50.092Z,17.67
2018-11-25T23:35:25.046Z,16.63
2018-11-25T23:37:53.482Z,17.87
2018-11-25T23:40:21.904Z,14.83
2018-11-25T23:42:50.806Z,16.03
2018-11-25T23:45:19.239Z,13.90
2018-11-25T23:47:47.698Z,15.40
2018-11-25T23:50:16.097Z,15.07
2018-11-25T23:52:46.027Z,13.90
2018-11-25T23:55:15.124Z,15.57
2018-11-25T23:57:43.596Z,15.13
